sensor_id;sensor_type;location;lat;lon;timestamp;temperature;humidity
7155;DHT22;3619;53.784;10.440;2023-11-19T00:01:47;4.90;99.90
7155;DHT22;3619;53.784;10.440;2023-11-19T00:04:15;4.90;99.90
7155;DHT22;3619;53.784;10.440;2023-11-19T00:06:42;4.90;99.90
7155;DHT22;3619;53.784;10.440;2023-11-19T00:09:09;4.80;99.90
7155;DHT22;3619;53.784;10.440;2023-11-19T00:11:36;4.90;99.90
7155;DHT22;3619;53.784;10.440;2023-11-19T00:14:03;4.90;99.90
7155;DHT22;3619;53.784;10.440;2023-11-19T00:16:34;4.90;99.90
7155;DHT22;3619;53.784;10.440;2023-11-19T00:19:02;4.90;99.90
7155;DHT22;3619;53.784;10.440;2023-11-19T00:21:29;4.90;99.90
7155;DHT22;3619;53.784;10.440;2023-11-19T00:23:56;4.90;99.90
7155;DHT22;3619;53.784;10.440;2023-11-19T00:26:23;4.90;99.90
7155;DHT22;3619;53.784;10.440;2023-11-19T00:28:50;4.90;99.90
7155;DHT22;3619;53.784;10.440;2023-11-19T00:31:18;4.90;99.90
7155;DHT22;3619;53.784;10.440;2023-11-19T00:33:45;4.90;99.90
7155;DHT22;3619;53.784;10.440;2023-11-19T00:36:13;4.90;99.90
7155;DHT22;3619;53.784;10.440;2023-11-19T00:38:39;4.90;99.90
7155;DHT22;3619;53.784;10.440;2023-11-19T00:41:06;5.00;99.90
7155;DHT22;3619;53.784;10.440;2023-11-19T00:43:33;4.90;99.90
7155;DHT22;3619;53.784;10.440;2023-11-19T00:46:00;4.90;99.90
7155;DHT22;3619;53.784;10.440;2023-11-19T00:48:28;4.90;99.90
7155;DHT22;3619;53.784;10.440;2023-11-19T00:50:54;5.00;99.90
7155;DHT22;3619;53.784;10.440;2023-11-19T00:53:23;5.00;99.90
7155;DHT22;3619;53.784;10.440;2023-11-19T00:55:50;4.90;99.90
7155;DHT22;3619;53.784;10.440;2023-11-19T00:58:17;4.90;99.90
7155;DHT22;3619;53.784;10.440;2023-11-19T01:00:44;5.00;99.90
7155;DHT22;3619;53.784;10.440;2023-11-19T01:03:11;5.00;99.90
7155;DHT22;3619;53.784;10.440;2023-11-19T01:05:38;5.00;99.90
7155;DHT22;3619;53.784;10.440;2023-11-19T01:08:05;4.90;99.90
7155;DHT22;3619;53.784;10.440;2023-11-19T01:10:33;5.00;99.90
7155;DHT22;3619;53.784;10.440;2023-11-19T01:13:00;5.00;99.90
7155;DHT22;3619;53.784;10.440;2023-11-19T01:15:30;5.00;99.90
7155;DHT22;3619;53.784;10.440;2023-11-19T01:17:56;5.00;99.90
7155;DHT22;3619;53.784;10.440;2023-11-19T01:20:23;5.00;99.90
7155;DHT22;3619;53.784;10.440;2023-11-19T01:22:50;5.10;99.90
7155;DHT22;3619;53.784;10.440;2023-11-19T01:25:17;5.00;99.90
7155;DHT22;3619;53.784;10.440;2023-11-19T01:27:45;5.00;99.90
7155;DHT22;3619;53.784;10.440;2023-11-19T01:30:13;5.00;99.90
7155;DHT22;3619;53.784;10.440;2023-11-19T01:32:40;5.00;99.90
7155;DHT22;3619;53.784;10.440;2023-11-19T01:35:07;5.00;99.90
7155;DHT22;3619;53.784;10.440;2023-11-19T01:37:34;5.00;99.90
7155;DHT22;3619;53.784;10.440;2023-11-19T01:40:02;5.10;99.90
7155;DHT22;3619;53.784;10.440;2023-11-19T01:42:35;5.10;99.90
7155;DHT22;3619;53.784;10.440;2023-11-19T01:45:05;5.00;99.90
7155;DHT22;3619;53.784;10.440;2023-11-19T01:47:33;5.00;99.90
7155;DHT22;3619;53.784;10.440;2023-11-19T01:50:02;5.10;99.90
7155;DHT22;3619;53.784;10.440;2023-11-19T01:52:32;5.10;99.90
7155;DHT22;3619;53.784;10.440;2023-11-19T01:55:01;5.10;99.90
7155;DHT22;3619;53.784;10.440;2023-11-19T01:57:28;5.10;99.90
7155;DHT22;3619;53.784;10.440;2023-11-19T01:59:55;5.10;99.90
7155;DHT22;3619;53.784;10.440;2023-11-19T02:02:24;5.00;99.90
7155;DHT22;3619;53.784;10.440;2023-11-19T02:04:53;5.10;99.90
7155;DHT22;3619;53.784;10.440;2023-11-19T02:07:20;5.10;99.90
7155;DHT22;3619;53.784;10.440;2023-11-19T02:09:47;5.10;99.90
7155;DHT22;3619;53.784;10.440;2023-11-19T02:12:14;5.10;99.90
7155;DHT22;3619;53.784;10.440;2023-11-19T02:14:40;5.10;99.90
7155;DHT22;3619;53.784;10.440;2023-11-19T02:17:07;5.20;99.90
7155;DHT22;3619;53.784;10.440;2023-11-19T02:19:52;5.10;99.90
7155;DHT22;3619;53.784;10.440;2023-11-19T02:22:19;5.10;99.90
7155;DHT22;3619;53.784;10.440;2023-11-19T02:24:48;5.10;99.90
7155;DHT22;3619;53.784;10.440;2023-11-19T02:27:24;5.20;99.90
7155;DHT22;3619;53.784;10.440;2023-11-19T02:29:55;5.10;99.90
7155;DHT22;3619;53.784;10.440;2023-11-19T02:32:23;5.20;99.90
7155;DHT22;3619;53.784;10.440;2023-11-19T02:34:51;5.20;99.90
7155;DHT22;3619;53.784;10.440;2023-11-19T02:37:18;5.20;99.90
7155;DHT22;3619;53.784;10.440;2023-11-19T02:39:45;5.20;99.90
7155;DHT22;3619;53.784;10.440;2023-11-19T02:42:12;5.20;99.90
7155;DHT22;3619;53.784;10.440;2023-11-19T02:44:43;5.20;99.90
7155;DHT22;3619;53.784;10.440;2023-11-19T02:47:12;5.10;99.90
7155;DHT22;3619;53.784;10.440;2023-11-19T02:49:38;5.20;99.90
7155;DHT22;3619;53.784;10.440;2023-11-19T02:52:06;5.20;99.90
7155;DHT22;3619;53.784;10.440;2023-11-19T02:54:36;5.20;99.90
7155;DHT22;3619;53.784;10.440;2023-11-19T02:57:03;5.20;99.90
7155;DHT22;3619;53.784;10.440;2023-11-19T02:59:31;5.20;99.90
7155;DHT22;3619;53.784;10.440;2023-11-19T03:02:04;5.20;99.90
7155;DHT22;3619;53.784;10.440;2023-11-19T03:04:33;5.20;99.90
7155;DHT22;3619;53.784;10.440;2023-11-19T03:07:00;5.20;99.90
7155;DHT22;3619;53.784;10.440;2023-11-19T03:09:27;5.20;99.90
7155;DHT22;3619;53.784;10.440;2023-11-19T03:11:55;5.30;99.90
7155;DHT22;3619;53.784;10.440;2023-11-19T03:14:22;5.30;99.90
7155;DHT22;3619;53.784;10.440;2023-11-19T03:16:49;5.20;99.90
7155;DHT22;3619;53.784;10.440;2023-11-19T03:19:16;5.30;99.90
7155;DHT22;3619;53.784;10.440;2023-11-19T03:21:44;5.30;99.90
7155;DHT22;3619;53.784;10.440;2023-11-19T03:24:13;5.30;99.90
7155;DHT22;3619;53.784;10.440;2023-11-19T03:26:40;5.30;99.90
7155;DHT22;3619;53.784;10.440;2023-11-19T03:29:08;5.30;99.90
7155;DHT22;3619;53.784;10.440;2023-11-19T03:31:35;5.30;99.90
7155;DHT22;3619;53.784;10.440;2023-11-19T03:34:01;5.30;99.90
7155;DHT22;3619;53.784;10.440;2023-11-19T03:36:32;5.30;99.90
7155;DHT22;3619;53.784;10.440;2023-11-19T03:39:00;5.30;99.90
7155;DHT22;3619;53.784;10.440;2023-11-19T03:41:28;5.40;99.90
7155;DHT22;3619;53.784;10.440;2023-11-19T03:43:56;5.30;99.90
7155;DHT22;3619;53.784;10.440;2023-11-19T03:46:23;5.30;99.90
7155;DHT22;3619;53.784;10.440;2023-11-19T03:48:50;5.40;99.90
7155;DHT22;3619;53.784;10.440;2023-11-19T03:51:17;5.30;99.90
7155;DHT22;3619;53.784;10.440;2023-11-19T03:53:44;5.40;99.90
7155;DHT22;3619;53.784;10.440;2023-11-19T03:56:12;5.40;99.90
7155;DHT22;3619;53.784;10.440;2023-11-19T03:58:39;5.40;99.90
7155;DHT22;3619;53.784;10.440;2023-11-19T04:01:10;5.40;99.90
7155;DHT22;3619;53.784;10.440;2023-11-19T04:03:37;5.40;99.90
7155;DHT22;3619;53.784;10.440;2023-11-19T04:06:04;5.40;99.90
7155;DHT22;3619;53.784;10.440;2023-11-19T04:08:31;5.40;99.90
7155;DHT22;3619;53.784;10.440;2023-11-19T04:10:58;5.50;99.90
7155;DHT22;3619;53.784;10.440;2023-11-19T04:13:26;5.50;99.90
7155;DHT22;3619;53.784;10.440;2023-11-19T04:15:53;5.50;99.90
7155;DHT22;3619;53.784;10.440;2023-11-19T04:18:20;5.50;99.90
7155;DHT22;3619;53.784;10.440;2023-11-19T04:20:47;5.50;99.90
7155;DHT22;3619;53.784;10.440;2023-11-19T04:23:13;5.50;99.90
7155;DHT22;3619;53.784;10.440;2023-11-19T04:25:41;5.60;99.90
7155;DHT22;3619;53.784;10.440;2023-11-19T04:28:07;5.50;99.90
7155;DHT22;3619;53.784;10.440;2023-11-19T04:30:36;5.60;99.90
7155;DHT22;3619;53.784;10.440;2023-11-19T04:33:03;5.60;99.90
7155;DHT22;3619;53.784;10.440;2023-11-19T04:35:31;5.60;99.90
7155;DHT22;3619;53.784;10.440;2023-11-19T04:37:58;5.60;99.90
7155;DHT22;3619;53.784;10.440;2023-11-19T04:40:24;5.60;99.90
7155;DHT22;3619;53.784;10.440;2023-11-19T04:42:51;5.70;99.90
7155;DHT22;3619;53.784;10.440;2023-11-19T04:45:18;5.70;99.90
7155;DHT22;3619;53.784;10.440;2023-11-19T04:47:47;5.70;99.90
7155;DHT22;3619;53.784;10.440;2023-11-19T04:50:14;5.80;99.90
7155;DHT22;3619;53.784;10.440;2023-11-19T04:52:41;5.80;99.90
7155;DHT22;3619;53.784;10.440;2023-11-19T04:55:10;5.80;99.90
7155;DHT22;3619;53.784;10.440;2023-11-19T04:57:38;5.90;99.90
7155;DHT22;3619;53.784;10.440;2023-11-19T05:00:05;5.90;99.90
7155;DHT22;3619;53.784;10.440;2023-11-19T05:02:33;5.90;99.90
7155;DHT22;3619;53.784;10.440;2023-11-19T05:05:01;5.90;99.90
7155;DHT22;3619;53.784;10.440;2023-11-19T05:07:27;6.00;99.90
7155;DHT22;3619;53.784;10.440;2023-11-19T05:09:53;6.00;99.90
7155;DHT22;3619;53.784;10.440;2023-11-19T05:12:20;6.00;99.90
7155;DHT22;3619;53.784;10.440;2023-11-19T05:14:48;6.00;99.90
7155;DHT22;3619;53.784;10.440;2023-11-19T05:17:16;6.10;99.90
7155;DHT22;3619;53.784;10.440;2023-11-19T05:19:43;6.10;99.90
7155;DHT22;3619;53.784;10.440;2023-11-19T05:22:11;6.10;99.90
7155;DHT22;3619;53.784;10.440;2023-11-19T05:24:39;6.20;99.90
7155;DHT22;3619;53.784;10.440;2023-11-19T05:27:06;6.30;99.90
7155;DHT22;3619;53.784;10.440;2023-11-19T05:29:33;6.50;99.90
7155;DHT22;3619;53.784;10.440;2023-11-19T05:32:00;6.50;99.90
7155;DHT22;3619;53.784;10.440;2023-11-19T05:34:27;6.60;99.90
7155;DHT22;3619;53.784;10.440;2023-11-19T05:36:54;6.70;99.90
7155;DHT22;3619;53.784;10.440;2023-11-19T05:39:22;6.80;99.90
7155;DHT22;3619;53.784;10.440;2023-11-19T05:41:49;6.80;99.90
7155;DHT22;3619;53.784;10.440;2023-11-19T05:44:17;6.90;99.90
7155;DHT22;3619;53.784;10.440;2023-11-19T05:46:44;6.90;99.90
7155;DHT22;3619;53.784;10.440;2023-11-19T05:49:11;7.00;99.90
7155;DHT22;3619;53.784;10.440;2023-11-19T05:51:38;7.10;99.90
7155;DHT22;3619;53.784;10.440;2023-11-19T05:54:06;7.20;99.90
7155;DHT22;3619;53.784;10.440;2023-11-19T05:56:35;7.30;99.90
7155;DHT22;3619;53.784;10.440;2023-11-19T05:59:02;7.40;99.90
7155;DHT22;3619;53.784;10.440;2023-11-19T06:01:32;7.50;99.90
7155;DHT22;3619;53.784;10.440;2023-11-19T06:03:59;7.60;99.90
7155;DHT22;3619;53.784;10.440;2023-11-19T06:06:26;7.70;99.90
7155;DHT22;3619;53.784;10.440;2023-11-19T06:08:53;7.80;99.90
7155;DHT22;3619;53.784;10.440;2023-11-19T06:11:20;7.90;99.90
7155;DHT22;3619;53.784;10.440;2023-11-19T06:13:48;8.00;99.90
7155;DHT22;3619;53.784;10.440;2023-11-19T06:16:16;8.00;99.90
7155;DHT22;3619;53.784;10.440;2023-11-19T06:18:43;8.10;99.90
7155;DHT22;3619;53.784;10.440;2023-11-19T06:21:10;8.10;99.90
7155;DHT22;3619;53.784;10.440;2023-11-19T06:23:37;8.20;99.90
7155;DHT22;3619;53.784;10.440;2023-11-19T06:26:04;8.30;99.90
7155;DHT22;3619;53.784;10.440;2023-11-19T06:28:31;8.40;99.90
7155;DHT22;3619;53.784;10.440;2023-11-19T06:31:03;8.50;99.90
7155;DHT22;3619;53.784;10.440;2023-11-19T06:33:29;8.60;99.90
7155;DHT22;3619;53.784;10.440;2023-11-19T06:35:56;8.60;99.90
7155;DHT22;3619;53.784;10.440;2023-11-19T06:38:23;8.60;99.90
7155;DHT22;3619;53.784;10.440;2023-11-19T06:40:50;8.70;99.90
7155;DHT22;3619;53.784;10.440;2023-11-19T06:43:16;8.70;99.90
7155;DHT22;3619;53.784;10.440;2023-11-19T06:45:43;8.60;99.90
7155;DHT22;3619;53.784;10.440;2023-11-19T06:48:11;8.60;99.90
7155;DHT22;3619;53.784;10.440;2023-11-19T06:50:38;8.60;99.90
7155;DHT22;3619;53.784;10.440;2023-11-19T06:53:05;8.70;99.90
7155;DHT22;3619;53.784;10.440;2023-11-19T06:55:35;8.80;99.90
7155;DHT22;3619;53.784;10.440;2023-11-19T06:58:02;8.80;99.90
7155;DHT22;3619;53.784;10.440;2023-11-19T07:00:29;8.90;99.90
7155;DHT22;3619;53.784;10.440;2023-11-19T07:02:58;8.90;99.90
7155;DHT22;3619;53.784;10.440;2023-11-19T07:05:26;9.00;99.90
7155;DHT22;3619;53.784;10.440;2023-11-19T07:07:53;9.10;99.90
7155;DHT22;3619;53.784;10.440;2023-11-19T07:10:21;9.10;99.90
7155;DHT22;3619;53.784;10.440;2023-11-19T07:12:48;9.20;99.90
7155;DHT22;3619;53.784;10.440;2023-11-19T07:15:16;9.20;99.90
7155;DHT22;3619;53.784;10.440;2023-11-19T07:17:43;9.30;99.90
7155;DHT22;3619;53.784;10.440;2023-11-19T07:20:11;9.30;99.90
7155;DHT22;3619;53.784;10.440;2023-11-19T07:22:42;9.30;99.90
7155;DHT22;3619;53.784;10.440;2023-11-19T07:25:12;9.40;99.90
7155;DHT22;3619;53.784;10.440;2023-11-19T07:27:39;9.50;99.90
7155;DHT22;3619;53.784;10.440;2023-11-19T07:30:06;9.50;99.90
7155;DHT22;3619;53.784;10.440;2023-11-19T07:32:34;9.60;99.90
7155;DHT22;3619;53.784;10.440;2023-11-19T07:35:01;9.60;99.90
7155;DHT22;3619;53.784;10.440;2023-11-19T07:37:27;9.70;99.90
7155;DHT22;3619;53.784;10.440;2023-11-19T07:39:55;9.80;99.90
7155;DHT22;3619;53.784;10.440;2023-11-19T07:42:21;9.90;99.90
7155;DHT22;3619;53.784;10.440;2023-11-19T07:44:49;9.90;99.90
7155;DHT22;3619;53.784;10.440;2023-11-19T07:47:16;10.00;99.90
7155;DHT22;3619;53.784;10.440;2023-11-19T07:49:46;10.00;99.90
7155;DHT22;3619;53.784;10.440;2023-11-19T07:52:13;10.20;99.90
7155;DHT22;3619;53.784;10.440;2023-11-19T07:54:40;10.10;99.90
7155;DHT22;3619;53.784;10.440;2023-11-19T07:57:08;10.20;99.90
7155;DHT22;3619;53.784;10.440;2023-11-19T07:59:35;10.30;99.90
7155;DHT22;3619;53.784;10.440;2023-11-19T08:02:02;10.30;99.90
7155;DHT22;3619;53.784;10.440;2023-11-19T08:04:30;10.30;99.90
7155;DHT22;3619;53.784;10.440;2023-11-19T08:06:57;10.50;99.90
7155;DHT22;3619;53.784;10.440;2023-11-19T08:09:26;10.50;99.90
7155;DHT22;3619;53.784;10.440;2023-11-19T08:11:53;10.50;99.90
7155;DHT22;3619;53.784;10.440;2023-11-19T08:14:23;10.60;99.90
7155;DHT22;3619;53.784;10.440;2023-11-19T08:16:50;10.70;99.90
7155;DHT22;3619;53.784;10.440;2023-11-19T08:19:17;10.70;99.90
7155;DHT22;3619;53.784;10.440;2023-11-19T08:21:44;10.80;99.90
7155;DHT22;3619;53.784;10.440;2023-11-19T08:24:11;10.80;99.90
7155;DHT22;3619;53.784;10.440;2023-11-19T08:26:38;10.90;99.90
7155;DHT22;3619;53.784;10.440;2023-11-19T08:29:05;10.90;99.90
7155;DHT22;3619;53.784;10.440;2023-11-19T08:31:33;11.00;99.90
7155;DHT22;3619;53.784;10.440;2023-11-19T08:34:00;11.00;99.90
7155;DHT22;3619;53.784;10.440;2023-11-19T08:36:28;11.10;99.90
7155;DHT22;3619;53.784;10.440;2023-11-19T08:38:57;11.00;99.90
7155;DHT22;3619;53.784;10.440;2023-11-19T08:41:24;11.20;99.90
7155;DHT22;3619;53.784;10.440;2023-11-19T08:43:50;11.10;99.90
7155;DHT22;3619;53.784;10.440;2023-11-19T08:46:18;11.20;99.90
7155;DHT22;3619;53.784;10.440;2023-11-19T08:48:46;11.20;99.90
7155;DHT22;3619;53.784;10.440;2023-11-19T08:51:13;11.20;99.90
7155;DHT22;3619;53.784;10.440;2023-11-19T08:53:40;11.30;99.90
7155;DHT22;3619;53.784;10.440;2023-11-19T08:56:07;11.30;99.90
7155;DHT22;3619;53.784;10.440;2023-11-19T08:58:36;11.40;99.90
7155;DHT22;3619;53.784;10.440;2023-11-19T09:01:02;11.40;99.90
7155;DHT22;3619;53.784;10.440;2023-11-19T09:03:31;11.40;99.90
7155;DHT22;3619;53.784;10.440;2023-11-19T09:06:01;11.50;99.90
7155;DHT22;3619;53.784;10.440;2023-11-19T09:08:29;11.50;99.90
7155;DHT22;3619;53.784;10.440;2023-11-19T09:10:56;11.50;99.90
7155;DHT22;3619;53.784;10.440;2023-11-19T09:13:23;11.50;99.90
7155;DHT22;3619;53.784;10.440;2023-11-19T09:15:50;11.50;99.90
7155;DHT22;3619;53.784;10.440;2023-11-19T09:18:16;11.60;99.90
7155;DHT22;3619;53.784;10.440;2023-11-19T09:20:43;11.60;99.90
7155;DHT22;3619;53.784;10.440;2023-11-19T09:23:15;11.60;99.90
7155;DHT22;3619;53.784;10.440;2023-11-19T09:25:42;11.60;99.90
7155;DHT22;3619;53.784;10.440;2023-11-19T09:28:09;11.60;99.90
7155;DHT22;3619;53.784;10.440;2023-11-19T09:30:36;11.60;99.90
7155;DHT22;3619;53.784;10.440;2023-11-19T09:33:03;11.60;99.90
7155;DHT22;3619;53.784;10.440;2023-11-19T09:35:29;11.60;99.90
7155;DHT22;3619;53.784;10.440;2023-11-19T09:37:56;11.60;99.90
7155;DHT22;3619;53.784;10.440;2023-11-19T09:40:26;11.60;99.90
7155;DHT22;3619;53.784;10.440;2023-11-19T09:42:54;11.50;99.90
7155;DHT22;3619;53.784;10.440;2023-11-19T09:45:21;11.50;99.90
7155;DHT22;3619;53.784;10.440;2023-11-19T09:47:51;11.50;99.90
7155;DHT22;3619;53.784;10.440;2023-11-19T09:50:19;11.50;99.90
7155;DHT22;3619;53.784;10.440;2023-11-19T09:52:47;11.50;99.90
7155;DHT22;3619;53.784;10.440;2023-11-19T09:55:14;11.50;99.90
7155;DHT22;3619;53.784;10.440;2023-11-19T09:57:43;11.40;99.90
7155;DHT22;3619;53.784;10.440;2023-11-19T10:00:11;11.40;99.90
7155;DHT22;3619;53.784;10.440;2023-11-19T10:02:41;11.40;99.90
7155;DHT22;3619;53.784;10.440;2023-11-19T10:05:11;11.40;99.90
7155;DHT22;3619;53.784;10.440;2023-11-19T10:07:40;11.40;99.90
7155;DHT22;3619;53.784;10.440;2023-11-19T10:10:08;11.30;99.90
7155;DHT22;3619;53.784;10.440;2023-11-19T10:12:36;11.40;99.90
7155;DHT22;3619;53.784;10.440;2023-11-19T10:15:07;11.40;99.90
7155;DHT22;3619;53.784;10.440;2023-11-19T10:17:39;11.40;99.90
7155;DHT22;3619;53.784;10.440;2023-11-19T10:20:08;11.40;99.90
7155;DHT22;3619;53.784;10.440;2023-11-19T10:22:37;11.40;99.90
7155;DHT22;3619;53.784;10.440;2023-11-19T10:25:05;11.40;99.90
7155;DHT22;3619;53.784;10.440;2023-11-19T10:27:48;11.40;99.90
7155;DHT22;3619;53.784;10.440;2023-11-19T10:30:20;11.40;99.90
7155;DHT22;3619;53.784;10.440;2023-11-19T10:33:03;11.40;99.90
7155;DHT22;3619;53.784;10.440;2023-11-19T10:35:31;11.40;99.90
7155;DHT22;3619;53.784;10.440;2023-11-19T10:37:59;11.30;99.90
7155;DHT22;3619;53.784;10.440;2023-11-19T10:40:38;11.30;99.90
7155;DHT22;3619;53.784;10.440;2023-11-19T10:43:05;11.30;99.90
7155;DHT22;3619;53.784;10.440;2023-11-19T10:45:35;11.30;99.90
7155;DHT22;3619;53.784;10.440;2023-11-19T10:48:02;11.40;99.90
7155;DHT22;3619;53.784;10.440;2023-11-19T10:50:32;11.40;99.90
7155;DHT22;3619;53.784;10.440;2023-11-19T10:52:59;11.40;99.90
7155;DHT22;3619;53.784;10.440;2023-11-19T10:55:28;11.40;99.90
7155;DHT22;3619;53.784;10.440;2023-11-19T10:57:59;11.40;99.90
7155;DHT22;3619;53.784;10.440;2023-11-19T11:00:29;11.30;99.90
7155;DHT22;3619;53.784;10.440;2023-11-19T11:03:01;11.30;99.90
7155;DHT22;3619;53.784;10.440;2023-11-19T11:05:29;11.30;99.90
7155;DHT22;3619;53.784;10.440;2023-11-19T11:08:00;11.30;99.90
7155;DHT22;3619;53.784;10.440;2023-11-19T11:10:28;11.20;99.90
7155;DHT22;3619;53.784;10.440;2023-11-19T11:13:03;11.20;99.90
7155;DHT22;3619;53.784;10.440;2023-11-19T11:15:30;11.10;99.90
7155;DHT22;3619;53.784;10.440;2023-11-19T11:18:01;11.10;99.90
7155;DHT22;3619;53.784;10.440;2023-11-19T11:20:29;11.10;99.90
7155;DHT22;3619;53.784;10.440;2023-11-19T11:23:11;11.10;99.90
7155;DHT22;3619;53.784;10.440;2023-11-19T11:25:51;11.10;99.90
7155;DHT22;3619;53.784;10.440;2023-11-19T11:28:28;11.10;99.90
7155;DHT22;3619;53.784;10.440;2023-11-19T11:31:23;11.10;99.90
7155;DHT22;3619;53.784;10.440;2023-11-19T11:34:35;11.10;99.90
7155;DHT22;3619;53.784;10.440;2023-11-19T11:37:10;11.10;99.90
7155;DHT22;3619;53.784;10.440;2023-11-19T11:39:40;11.10;99.90
7155;DHT22;3619;53.784;10.440;2023-11-19T11:42:35;11.10;99.90
7155;DHT22;3619;53.784;10.440;2023-11-19T11:45:04;11.10;99.90
7155;DHT22;3619;53.784;10.440;2023-11-19T11:48:11;11.10;99.90
7155;DHT22;3619;53.784;10.440;2023-11-19T11:50:53;11.10;99.90
7155;DHT22;3619;53.784;10.440;2023-11-19T11:53:21;11.10;99.90
7155;DHT22;3619;53.784;10.440;2023-11-19T11:55:57;11.10;99.90
7155;DHT22;3619;53.784;10.440;2023-11-19T11:58:35;11.10;99.90
7155;DHT22;3619;53.784;10.440;2023-11-19T12:01:04;11.10;99.90
7155;DHT22;3619;53.784;10.440;2023-11-19T12:03:34;11.20;99.90
7155;DHT22;3619;53.784;10.440;2023-11-19T12:06:05;11.20;99.90
7155;DHT22;3619;53.784;10.440;2023-11-19T12:08:34;11.20;99.90
7155;DHT22;3619;53.784;10.440;2023-11-19T12:11:01;11.10;99.90
7155;DHT22;3619;53.784;10.440;2023-11-19T12:13:54;11.20;99.90
7155;DHT22;3619;53.784;10.440;2023-11-19T12:16:24;11.20;99.90
7155;DHT22;3619;53.784;10.440;2023-11-19T12:18:53;11.20;99.90
7155;DHT22;3619;53.784;10.440;2023-11-19T12:21:31;11.20;99.90
7155;DHT22;3619;53.784;10.440;2023-11-19T12:23:59;11.10;99.90
7155;DHT22;3619;53.784;10.440;2023-11-19T12:26:37;11.10;99.90
7155;DHT22;3619;53.784;10.440;2023-11-19T12:29:04;11.30;99.90
7155;DHT22;3619;53.784;10.440;2023-11-19T12:31:33;11.20;99.90
7155;DHT22;3619;53.784;10.440;2023-11-19T12:34:11;11.20;99.90
7155;DHT22;3619;53.784;10.440;2023-11-19T12:36:40;11.30;99.90
7155;DHT22;3619;53.784;10.440;2023-11-19T12:39:08;11.30;99.90
7155;DHT22;3619;53.784;10.440;2023-11-19T12:41:52;11.30;99.90
7155;DHT22;3619;53.784;10.440;2023-11-19T12:44:21;11.30;99.90
7155;DHT22;3619;53.784;10.440;2023-11-19T12:47:00;11.30;99.90
7155;DHT22;3619;53.784;10.440;2023-11-19T12:49:27;11.30;99.90
7155;DHT22;3619;53.784;10.440;2023-11-19T12:51:55;11.40;99.90
7155;DHT22;3619;53.784;10.440;2023-11-19T12:54:32;11.30;99.90
7155;DHT22;3619;53.784;10.440;2023-11-19T12:56:59;11.30;99.90
7155;DHT22;3619;53.784;10.440;2023-11-19T12:59:28;11.40;99.90
7155;DHT22;3619;53.784;10.440;2023-11-19T13:01:57;11.40;99.90
7155;DHT22;3619;53.784;10.440;2023-11-19T13:04:28;11.40;99.90
7155;DHT22;3619;53.784;10.440;2023-11-19T13:06:57;11.50;99.90
7155;DHT22;3619;53.784;10.440;2023-11-19T13:09:42;11.40;99.90
7155;DHT22;3619;53.784;10.440;2023-11-19T13:12:15;11.50;99.90
7155;DHT22;3619;53.784;10.440;2023-11-19T13:14:52;11.50;99.90
7155;DHT22;3619;53.784;10.440;2023-11-19T13:17:24;11.50;99.90
7155;DHT22;3619;53.784;10.440;2023-11-19T13:19:54;11.50;99.90
7155;DHT22;3619;53.784;10.440;2023-11-19T13:22:25;11.50;99.90
7155;DHT22;3619;53.784;10.440;2023-11-19T13:24:53;11.60;99.90
7155;DHT22;3619;53.784;10.440;2023-11-19T13:27:30;11.50;99.90
7155;DHT22;3619;53.784;10.440;2023-11-19T13:29:58;11.50;99.90
7155;DHT22;3619;53.784;10.440;2023-11-19T13:32:26;11.50;99.90
7155;DHT22;3619;53.784;10.440;2023-11-19T13:35:00;11.50;99.90
7155;DHT22;3619;53.784;10.440;2023-11-19T13:37:30;11.50;99.90
7155;DHT22;3619;53.784;10.440;2023-11-19T13:39:58;11.50;99.90
7155;DHT22;3619;53.784;10.440;2023-11-19T13:42:26;11.50;99.90
7155;DHT22;3619;53.784;10.440;2023-11-19T13:44:57;11.50;99.90
7155;DHT22;3619;53.784;10.440;2023-11-19T13:47:30;11.50;99.90
7155;DHT22;3619;53.784;10.440;2023-11-19T13:49:58;11.50;99.90
7155;DHT22;3619;53.784;10.440;2023-11-19T13:52:26;11.50;99.90
7155;DHT22;3619;53.784;10.440;2023-11-19T13:54:56;11.50;99.90
7155;DHT22;3619;53.784;10.440;2023-11-19T13:57:23;11.50;99.90
7155;DHT22;3619;53.784;10.440;2023-11-19T13:59:50;11.60;99.90
7155;DHT22;3619;53.784;10.440;2023-11-19T14:02:19;11.50;99.90
7155;DHT22;3619;53.784;10.440;2023-11-19T14:04:46;11.50;99.90
7155;DHT22;3619;53.784;10.440;2023-11-19T14:07:14;11.50;99.90
7155;DHT22;3619;53.784;10.440;2023-11-19T14:09:44;11.50;99.90
7155;DHT22;3619;53.784;10.440;2023-11-19T14:12:16;11.40;99.90
7155;DHT22;3619;53.784;10.440;2023-11-19T14:14:43;11.40;99.90
7155;DHT22;3619;53.784;10.440;2023-11-19T14:17:10;11.40;99.90
7155;DHT22;3619;53.784;10.440;2023-11-19T14:19:38;11.40;99.90
7155;DHT22;3619;53.784;10.440;2023-11-19T14:22:05;11.40;99.90
7155;DHT22;3619;53.784;10.440;2023-11-19T14:24:32;11.30;99.90
7155;DHT22;3619;53.784;10.440;2023-11-19T14:26:59;11.40;99.90
7155;DHT22;3619;53.784;10.440;2023-11-19T14:29:28;11.40;99.90
7155;DHT22;3619;53.784;10.440;2023-11-19T14:31:56;11.30;99.90
7155;DHT22;3619;53.784;10.440;2023-11-19T14:34:24;11.30;99.90
7155;DHT22;3619;53.784;10.440;2023-11-19T14:36:51;11.30;99.90
7155;DHT22;3619;53.784;10.440;2023-11-19T14:39:19;11.30;99.90
7155;DHT22;3619;53.784;10.440;2023-11-19T14:41:46;11.30;99.90
7155;DHT22;3619;53.784;10.440;2023-11-19T14:44:13;11.30;99.90
7155;DHT22;3619;53.784;10.440;2023-11-19T14:46:41;11.30;99.90
7155;DHT22;3619;53.784;10.440;2023-11-19T14:49:08;11.30;99.90
7155;DHT22;3619;53.784;10.440;2023-11-19T14:51:35;11.30;99.90
7155;DHT22;3619;53.784;10.440;2023-11-19T14:54:03;11.20;99.90
7155;DHT22;3619;53.784;10.440;2023-11-19T14:56:31;11.20;99.90
7155;DHT22;3619;53.784;10.440;2023-11-19T14:59:00;11.20;99.90
7155;DHT22;3619;53.784;10.440;2023-11-19T15:01:31;11.20;99.90
7155;DHT22;3619;53.784;10.440;2023-11-19T15:04:02;11.10;99.90
7155;DHT22;3619;53.784;10.440;2023-11-19T15:06:31;11.10;99.90
7155;DHT22;3619;53.784;10.440;2023-11-19T15:09:03;11.00;99.90
7155;DHT22;3619;53.784;10.440;2023-11-19T15:11:30;11.00;99.90
7155;DHT22;3619;53.784;10.440;2023-11-19T15:14:01;11.00;99.90
7155;DHT22;3619;53.784;10.440;2023-11-19T15:16:32;10.90;99.90
7155;DHT22;3619;53.784;10.440;2023-11-19T15:19:03;10.90;99.90
7155;DHT22;3619;53.784;10.440;2023-11-19T15:21:31;10.90;99.90
7155;DHT22;3619;53.784;10.440;2023-11-19T15:24:00;10.80;99.90
7155;DHT22;3619;53.784;10.440;2023-11-19T15:26:30;10.80;99.90
7155;DHT22;3619;53.784;10.440;2023-11-19T15:28:57;10.80;99.90
7155;DHT22;3619;53.784;10.440;2023-11-19T15:31:25;10.80;99.90
7155;DHT22;3619;53.784;10.440;2023-11-19T15:33:52;10.80;99.90
7155;DHT22;3619;53.784;10.440;2023-11-19T15:36:21;10.80;99.90
7155;DHT22;3619;53.784;10.440;2023-11-19T15:38:48;10.60;99.90
7155;DHT22;3619;53.784;10.440;2023-11-19T15:41:14;10.60;99.90
7155;DHT22;3619;53.784;10.440;2023-11-19T15:43:42;10.50;99.90
7155;DHT22;3619;53.784;10.440;2023-11-19T15:46:09;10.50;99.90
7155;DHT22;3619;53.784;10.440;2023-11-19T15:48:36;10.40;99.90
7155;DHT22;3619;53.784;10.440;2023-11-19T15:51:05;10.40;99.90
7155;DHT22;3619;53.784;10.440;2023-11-19T15:53:33;10.30;99.90
7155;DHT22;3619;53.784;10.440;2023-11-19T15:56:00;10.30;99.90
7155;DHT22;3619;53.784;10.440;2023-11-19T15:58:29;10.30;99.90
7155;DHT22;3619;53.784;10.440;2023-11-19T16:00:55;10.20;99.90
7155;DHT22;3619;53.784;10.440;2023-11-19T16:03:22;10.20;99.90
7155;DHT22;3619;53.784;10.440;2023-11-19T16:05:49;10.20;99.90